Time;durP1;ratioP1;P1;durP2;ratioP2;P2;SDS_P1;SDS_P2;PMS_P1;PMS_P2;Temp;Humidity;BMP_temperature;BMP_pressure;BME280_temperature;BME280_humidity;BME280_pressure;Samples;Min_cycle;Max_cycle;Signal;HPM_P1;HPM_P2
2021/11/25 00:00:41;;;;;;;1670.50;509.83;;;6.80;99.90;;;;;;6290211;22;20421;-69
2021/11/25 00:03:09;;;;;;;611.83;128.53;;;6.80;99.90;;;;;;6290900;22;20431;-68
2021/11/25 00:05:38;;;;;;;1131.57;216.20;;;6.80;99.90;;;;;;6290498;22;20394;-68
2021/11/25 00:08:06;;;;;;;1701.43;553.03;;;6.80;99.90;;;;;;6289043;22;20789;-68
2021/11/25 00:10:38;;;;;;;1736.00;503.03;;;6.80;99.90;;;;;;6279153;22;20424;-68
2021/11/25 00:13:07;;;;;;;830.77;177.13;;;6.80;99.90;;;;;;6289222;22;20452;-67
2021/11/25 00:15:35;;;;;;;1605.20;497.90;;;6.80;99.90;;;;;;6288249;22;20427;-68
2021/11/25 00:18:03;;;;;;;418.20;67.37;;;6.80;99.90;;;;;;6278231;22;20410;-68
2021/11/25 00:20:32;;;;;;;1734.30;524.10;;;6.80;99.90;;;;;;6288254;22;20889;-68
2021/11/25 00:23:00;;;;;;;445.83;72.00;;;6.80;99.90;;;;;;6289015;22;20472;-68
2021/11/25 00:25:28;;;;;;;878.17;187.27;;;6.80;99.90;;;;;;6290167;22;20894;-68
2021/11/25 00:27:58;;;;;;;1541.00;288.50;;;6.80;99.90;;;;;;6254574;22;20415;-68
2021/11/25 00:30:26;;;;;;;1695.03;710.50;;;6.80;99.90;;;;;;6292237;22;20404;-68
2021/11/25 00:32:54;;;;;;;882.37;130.67;;;6.80;99.90;;;;;;6298873;22;20420;-68
2021/11/25 00:35:22;;;;;;;1999.90;999.90;;;6.80;99.90;;;;;;6302194;22;20425;-68
2021/11/25 00:37:51;;;;;;;854.60;154.70;;;6.80;99.90;;;;;;6302746;22;20426;-68
2021/11/25 00:40:20;;;;;;;1999.90;999.90;;;6.80;99.90;;;;;;6302588;22;20404;-68
2021/11/25 00:42:49;;;;;;;1369.90;437.87;;;6.80;99.90;;;;;;6301742;22;20443;-67
2021/11/25 00:45:19;;;;;;;1469.40;182.53;;;6.80;99.90;;;;;;6305355;22;20389;-68
2021/11/25 00:47:47;;;;;;;1415.83;485.03;;;6.80;99.90;;;;;;6306140;22;20461;-68
2021/11/25 00:50:17;;;;;;;1341.03;460.47;;;6.80;99.90;;;;;;6303002;22;20440;-68
2021/11/25 00:52:45;;;;;;;1269.57;428.40;;;6.80;99.90;;;;;;6300162;22;20742;-68
2021/11/25 00:55:14;;;;;;;1246.97;451.17;;;6.70;99.90;;;;;;6294370;22;20435;-68
2021/11/25 00:57:42;;;;;;;1999.90;999.90;;;6.70;99.90;;;;;;6288466;22;20393;-68
2021/11/25 01:00:14;;;;;;;898.17;141.23;;;6.70;99.90;;;;;;6288082;22;20755;-68
2021/11/25 01:02:44;;;;;;;614.23;118.20;;;6.70;99.90;;;;;;6250702;22;20424;-68
2021/11/25 01:05:15;;;;;;;1866.57;479.73;;;6.70;99.90;;;;;;6278157;22;20394;-67
2021/11/25 01:07:43;;;;;;;1942.70;295.20;;;6.70;99.90;;;;;;6287963;22;20404;-68
2021/11/25 01:10:14;;;;;;;1381.57;293.97;;;6.70;99.90;;;;;;6287853;22;20420;-68
2021/11/25 01:12:42;;;;;;;1104.00;262.30;;;6.70;99.90;;;;;;6288653;22;20409;-68
2021/11/25 01:15:12;;;;;;;445.00;89.27;;;6.70;99.90;;;;;;6277784;22;20466;-68
2021/11/25 01:17:40;;;;;;;1046.73;201.73;;;6.70;99.90;;;;;;6250447;22;20904;-68
2021/11/25 01:20:12;;;;;;;1749.83;552.17;;;6.70;99.90;;;;;;6287539;22;20424;-68
2021/11/25 01:22:40;;;;;;;1223.67;230.83;;;6.70;99.90;;;;;;6288157;22;20708;-68
2021/11/25 01:25:09;;;;;;;1082.30;241.27;;;6.70;99.90;;;;;;6287675;22;20398;-68
2021/11/25 01:27:39;;;;;;;1230.07;258.93;;;6.70;99.90;;;;;;6287621;22;20393;-68
2021/11/25 01:30:09;;;;;;;1937.63;538.23;;;6.70;99.90;;;;;;6287575;22;20417;-68
2021/11/25 01:32:38;;;;;;;1841.03;322.57;;;6.60;99.90;;;;;;6287630;22;20396;-68
2021/11/25 01:35:08;;;;;;;1889.00;326.33;;;6.60;99.90;;;;;;6287484;22;20425;-68
2021/11/25 01:37:38;;;;;;;1954.60;521.27;;;6.60;99.90;;;;;;6250130;22;20412;-68
2021/11/25 01:40:09;;;;;;;1999.90;525.63;;;6.60;99.90;;;;;;6287486;22;20423;-68
2021/11/25 01:42:39;;;;;;;962.87;209.63;;;6.60;99.90;;;;;;6287844;22;20381;-68
2021/11/25 01:45:08;;;;;;;891.60;193.90;;;6.60;99.90;;;;;;6288258;22;20399;-68
2021/11/25 01:47:37;;;;;;;1833.67;552.27;;;6.50;99.90;;;;;;6277508;22;20787;-68
2021/11/25 01:50:05;;;;;;;1968.87;548.67;;;6.50;99.90;;;;;;6277445;22;20755;-68
2021/11/25 01:52:33;;;;;;;1923.17;369.83;;;6.50;99.90;;;;;;6287465;22;20397;-68
2021/11/25 01:55:03;;;;;;;1640.03;315.00;;;6.50;99.90;;;;;;6287291;22;20424;-68
2021/11/25 01:57:31;;;;;;;1726.53;310.17;;;6.50;99.90;;;;;;6287737;22;20417;-68
2021/11/25 01:59:59;;;;;;;1686.73;522.80;;;6.40;99.90;;;;;;6287326;22;20955;-68
2021/11/25 02:02:28;;;;;;;1999.90;999.90;;;6.40;99.90;;;;;;6275888;22;20740;-68
2021/11/25 02:04:56;;;;;;;1999.90;999.90;;;6.40;99.90;;;;;;6287681;22;20400;-68
2021/11/25 02:07:24;;;;;;;1858.83;522.53;;;6.40;99.90;;;;;;6287139;22;20397;-68
2021/11/25 02:09:52;;;;;;;1912.33;527.83;;;6.30;99.90;;;;;;6276555;22;20931;-68
2021/11/25 02:12:22;;;;;;;1904.67;311.90;;;6.30;99.90;;;;;;6287069;22;20389;-68
2021/11/25 02:14:50;;;;;;;1999.90;999.90;;;6.20;99.90;;;;;;6287071;22;20467;-68
2021/11/25 02:17:19;;;;;;;1999.90;999.90;;;6.20;99.90;;;;;;6287093;22;20742;-68
2021/11/25 02:19:51;;;;;;;1922.07;548.20;;;6.20;99.90;;;;;;6286943;22;20420;-68
2021/11/25 02:22:20;;;;;;;1999.90;999.90;;;6.10;99.90;;;;;;6287148;22;20468;-68
2021/11/25 02:24:51;;;;;;;1999.90;999.90;;;6.10;99.90;;;;;;6287071;22;20428;-68
2021/11/25 02:27:19;;;;;;;1999.90;999.90;;;6.10;99.90;;;;;;6287056;22;20380;-68
2021/11/25 02:29:48;;;;;;;1802.47;503.87;;;6.00;99.90;;;;;;6287284;22;20460;-68
2021/11/25 02:32:30;;;;;;;1999.90;999.90;;;6.00;99.90;;;;;;6286703;22;20416;-68
2021/11/25 02:34:58;;;;;;;1999.90;999.90;;;5.90;99.90;;;;;;6249656;22;20425;-68
2021/11/25 02:37:28;;;;;;;1999.90;999.90;;;5.90;99.90;;;;;;6276972;22;20405;-68
2021/11/25 02:39:56;;;;;;;1999.90;999.90;;;5.80;99.90;;;;;;6287017;22;20512;-68
2021/11/25 02:42:24;;;;;;;1919.53;521.10;;;5.80;99.90;;;;;;6287080;22;20893;-68
2021/11/25 02:44:52;;;;;;;1999.90;999.90;;;5.70;99.90;;;;;;6287108;22;20730;-68
2021/11/25 02:47:21;;;;;;;1999.90;999.90;;;5.70;99.90;;;;;;6276662;22;20435;-68
2021/11/25 02:49:49;;;;;;;1999.90;999.90;;;5.70;99.90;;;;;;6286965;22;20416;-68
2021/11/25 02:52:17;;;;;;;1999.90;999.90;;;5.60;99.90;;;;;;6287053;22;20487;-68
2021/11/25 02:54:47;;;;;;;1999.90;999.90;;;5.60;99.90;;;;;;6286863;22;20393;-68
2021/11/25 02:57:15;;;;;;;1999.90;999.90;;;5.60;99.90;;;;;;6286921;22;20778;-68
2021/11/25 02:59:43;;;;;;;1999.90;999.90;;;5.60;99.90;;;;;;6286983;22;20512;-68
2021/11/25 03:02:11;;;;;;;1999.90;999.90;;;5.50;99.90;;;;;;6286956;22;20409;-68
2021/11/25 03:04:40;;;;;;;1999.90;999.90;;;5.50;99.90;;;;;;6286953;22;20397;-68
2021/11/25 03:07:08;;;;;;;1999.90;999.90;;;5.50;99.90;;;;;;6286263;22;20393;-68
2021/11/25 03:09:36;;;;;;;1999.90;999.90;;;5.50;99.90;;;;;;6290307;22;20933;-69
2021/11/25 03:12:07;;;;;;;1999.90;999.90;;;5.50;99.90;;;;;;6278266;22;20419;-68
2021/11/25 03:14:36;;;;;;;1999.90;532.77;;;5.50;99.90;;;;;;6249994;22;20787;-68
2021/11/25 03:17:04;;;;;;;1999.90;266.83;;;5.40;99.90;;;;;;6286963;22;20425;-68
2021/11/25 03:19:32;;;;;;;1999.90;511.03;;;5.40;99.90;;;;;;6287181;22;20448;-68
2021/11/25 03:22:00;;;;;;;1999.90;533.97;;;5.40;99.90;;;;;;6286787;22;20397;-68
2021/11/25 03:24:28;;;;;;;1999.90;999.90;;;5.40;99.90;;;;;;6287304;22;20875;-68
2021/11/25 03:26:57;;;;;;;1999.90;523.40;;;5.40;99.90;;;;;;6287266;22;20404;-68
2021/11/25 03:29:27;;;;;;;1999.90;543.50;;;5.40;99.90;;;;;;6286806;22;20413;-68
2021/11/25 03:31:55;;;;;;;1999.90;277.03;;;5.40;99.90;;;;;;6286740;22;20487;-68
2021/11/25 03:34:23;;;;;;;1999.90;555.13;;;5.40;99.90;;;;;;6287530;22;20429;-68
2021/11/25 03:36:51;;;;;;;1999.90;999.90;;;5.40;99.90;;;;;;6287062;22;20949;-68
2021/11/25 03:39:34;;;;;;;1999.90;999.90;;;5.40;99.90;;;;;;6193840;23;20419;-68
2021/11/25 03:42:02;;;;;;;1999.90;999.90;;;5.40;99.90;;;;;;6158066;23;20412;-68
2021/11/25 03:44:31;;;;;;;1999.90;551.57;;;5.40;99.90;;;;;;6194404;23;20399;-68
2021/11/25 03:46:59;;;;;;;1999.90;999.90;;;5.40;99.90;;;;;;6194851;23;20407;-68
2021/11/25 03:49:27;;;;;;;1999.90;999.90;;;5.50;99.90;;;;;;6184651;23;20424;-68
2021/11/25 03:51:55;;;;;;;1999.90;755.20;;;5.50;99.90;;;;;;6195024;23;21037;-68
2021/11/25 03:54:23;;;;;;;1999.90;999.90;;;5.50;99.90;;;;;;6195551;23;20399;-67
2021/11/25 03:56:52;;;;;;;1999.90;999.90;;;5.50;99.90;;;;;;6194683;23;20431;-68
2021/11/25 03:59:20;;;;;;;1999.90;786.60;;;5.50;99.90;;;;;;6194731;23;20502;-68
2021/11/25 04:01:49;;;;;;;1999.90;999.90;;;5.50;99.90;;;;;;6194521;23;20478;-68
2021/11/25 04:04:17;;;;;;;1999.90;518.93;;;5.50;99.90;;;;;;6194713;23;20400;-68
2021/11/25 04:06:46;;;;;;;1999.90;556.67;;;5.50;99.90;;;;;;6194584;23;20466;-68
2021/11/25 04:09:14;;;;;;;1999.90;539.67;;;5.50;99.90;;;;;;6192682;23;20415;-68
2021/11/25 04:11:42;;;;;;;1999.90;769.57;;;5.50;99.90;;;;;;6277746;22;20405;-68
2021/11/25 04:14:11;;;;;;;1999.90;999.90;;;5.50;99.90;;;;;;6288383;22;20393;-68
2021/11/25 04:16:39;;;;;;;1999.90;999.90;;;5.50;99.90;;;;;;6287434;22;20456;-68
2021/11/25 04:19:09;;;;;;;1999.90;999.90;;;5.50;99.90;;;;;;6288281;22;20412;-68
2021/11/25 04:21:37;;;;;;;1999.90;512.23;;;5.50;99.90;;;;;;6288377;22;20397;-67
2021/11/25 04:24:05;;;;;;;1999.90;999.90;;;5.50;99.90;;;;;;6278289;22;21086;-68
2021/11/25 04:26:33;;;;;;;1999.90;999.90;;;5.50;99.90;;;;;;6287839;22;20400;-68
2021/11/25 04:29:02;;;;;;;1999.90;999.90;;;5.50;99.90;;;;;;6288432;22;20412;-68
2021/11/25 04:37:03;;;;;;;1815.60;733.33;;;5.50;99.90;;;;;;6288150;22;20448;-68
2021/11/25 04:39:32;;;;;;;1999.90;999.90;;;5.50;99.90;;;;;;6288122;22;20448;-68
2021/11/25 04:42:00;;;;;;;1999.90;999.90;;;5.50;99.90;;;;;;6288146;22;20397;-68
2021/11/25 04:44:28;;;;;;;1999.90;999.90;;;5.50;99.90;;;;;;6288052;22;20393;-68
2021/11/25 04:46:57;;;;;;;1999.90;999.90;;;5.50;99.90;;;;;;6288020;22;20480;-68
2021/11/25 04:49:26;;;;;;;1999.90;999.90;;;5.50;99.90;;;;;;6288450;22;20417;-68
2021/11/25 04:51:55;;;;;;;1999.90;999.90;;;5.50;99.90;;;;;;6288016;22;20399;-68
2021/11/25 04:54:23;;;;;;;1999.90;999.90;;;5.50;99.90;;;;;;6288043;22;20393;-68
2021/11/25 04:56:51;;;;;;;1999.90;999.90;;;5.40;99.90;;;;;;6288570;22;20492;-68
2021/11/25 04:59:19;;;;;;;1999.90;999.90;;;5.40;99.90;;;;;;6287910;22;20437;-68
2021/11/25 05:01:47;;;;;;;1631.83;493.73;;;5.40;99.90;;;;;;6251430;22;20471;-68
2021/11/25 05:04:16;;;;;;;1999.90;999.90;;;5.50;99.90;;;;;;6251642;22;20495;-68
2021/11/25 05:06:45;;;;;;;1999.90;999.90;;;5.40;99.90;;;;;;6287946;22;20472;-68
2021/11/25 05:09:13;;;;;;;1999.90;999.90;;;5.40;99.90;;;;;;6250213;22;20467;-68
2021/11/25 05:11:44;;;;;;;1445.40;460.57;;;5.40;99.90;;;;;;6288226;22;20439;-68
2021/11/25 05:14:12;;;;;;;1999.90;999.90;;;5.40;99.90;;;;;;6286423;22;20393;-68
2021/11/25 05:16:40;;;;;;;1999.90;999.90;;;5.40;99.90;;;;;;6287487;22;20432;-68
2021/11/25 05:19:08;;;;;;;1999.90;999.90;;;5.40;99.90;;;;;;6287450;22;20474;-68
2021/11/25 05:21:37;;;;;;;1999.90;999.90;;;5.40;99.90;;;;;;6287718;22;21067;-67
2021/11/25 05:24:06;;;;;;;1999.90;999.90;;;5.40;99.90;;;;;;6287667;22;20397;-68
2021/11/25 05:26:34;;;;;;;1999.90;999.90;;;5.40;99.90;;;;;;6287643;22;20393;-67
2021/11/25 05:29:03;;;;;;;1760.90;473.53;;;5.40;99.90;;;;;;6287622;22;20423;-68
2021/11/25 05:31:31;;;;;;;1999.90;999.90;;;5.40;99.90;;;;;;6250382;22;20412;-68
2021/11/25 05:33:59;;;;;;;1999.90;760.43;;;5.40;99.90;;;;;;6287575;22;20393;-68
2021/11/25 05:36:27;;;;;;;1999.90;999.90;;;5.50;99.90;;;;;;6287445;22;20478;-68
2021/11/25 05:38:55;;;;;;;1999.90;770.43;;;5.50;99.90;;;;;;6288531;22;20918;-68
2021/11/25 05:41:25;;;;;;;1999.90;293.30;;;5.50;99.90;;;;;;6294574;22;20404;-67
2021/11/25 05:43:53;;;;;;;1999.90;775.73;;;5.50;99.90;;;;;;6292838;22;20389;-67
2021/11/25 05:46:23;;;;;;;1999.90;552.10;;;5.50;99.90;;;;;;6292258;22;20428;-67
2021/11/25 05:48:51;;;;;;;1999.90;760.10;;;5.50;99.90;;;;;;6294731;22;20436;-67
2021/11/25 05:51:19;;;;;;;1999.90;304.10;;;5.50;99.90;;;;;;6287541;22;20397;-68
2021/11/25 05:53:47;;;;;;;1999.90;777.00;;;5.50;99.90;;;;;;6287747;22;20415;-67
2021/11/25 05:56:16;;;;;;;1999.90;580.33;;;5.50;99.90;;;;;;6296007;22;20484;-67
2021/11/25 05:58:45;;;;;;;1999.90;423.70;;;5.50;99.90;;;;;;6294239;22;20899;-67
2021/11/25 06:01:14;;;;;;;1999.90;436.53;;;5.50;99.90;;;;;;6296237;22;20491;-67
2021/11/25 06:03:42;;;;;;;1999.90;857.30;;;5.50;99.90;;;;;;6294719;22;20403;-67
2021/11/25 06:06:10;;;;;;;1999.90;999.90;;;5.50;99.90;;;;;;6288444;22;20515;-68
2021/11/25 06:08:38;;;;;;;1999.90;400.83;;;5.50;99.90;;;;;;6287078;22;20417;-68
2021/11/25 06:11:06;;;;;;;1999.90;468.93;;;5.50;99.90;;;;;;6287207;22;20484;-68
2021/11/25 06:13:34;;;;;;;1999.90;422.43;;;5.60;99.90;;;;;;6287530;22;20724;-68
2021/11/25 06:16:04;;;;;;;1999.90;452.50;;;5.60;99.90;;;;;;6287162;22;20444;-68
2021/11/25 06:18:32;;;;;;;1999.90;859.67;;;5.60;99.90;;;;;;6286985;22;20439;-68
2021/11/25 06:21:01;;;;;;;1999.90;505.37;;;5.60;99.90;;;;;;6287791;22;20882;-68
2021/11/25 06:23:29;;;;;;;1999.90;856.13;;;5.60;99.90;;;;;;6290289;22;20401;-68
2021/11/25 06:25:57;;;;;;;1999.90;499.93;;;5.60;99.90;;;;;;6288898;22;20479;-68
2021/11/25 06:28:25;;;;;;;1999.90;669.93;;;5.60;99.90;;;;;;6287883;22;20745;-68
2021/11/25 06:30:54;;;;;;;1999.90;488.30;;;5.60;99.90;;;;;;6286075;22;20404;-68
2021/11/25 06:33:24;;;;;;;1999.90;552.50;;;5.60;99.90;;;;;;6287081;22;20729;-68
2021/11/25 06:35:53;;;;;;;1999.90;585.83;;;5.60;99.90;;;;;;6286859;22;20547;-68
2021/11/25 06:38:21;;;;;;;1999.90;542.37;;;5.60;99.90;;;;;;6286803;22;20440;-68
2021/11/25 06:40:49;;;;;;;1999.90;681.57;;;5.60;99.90;;;;;;6286879;22;20484;-68
2021/11/25 06:43:17;;;;;;;1999.90;704.30;;;5.60;99.90;;;;;;6287155;22;20527;-68
2021/11/25 06:45:47;;;;;;;1999.90;684.77;;;5.60;99.90;;;;;;6287175;22;20488;-68
2021/11/25 06:48:16;;;;;;;1999.90;999.90;;;5.60;99.90;;;;;;6277369;22;20451;-68
2021/11/25 06:50:45;;;;;;;1999.90;517.00;;;5.60;99.90;;;;;;6287394;22;20396;-68
2021/11/25 06:53:13;;;;;;;1999.90;604.77;;;5.60;99.90;;;;;;6277035;22;20409;-68
2021/11/25 06:55:41;;;;;;;1999.90;533.63;;;5.60;99.90;;;;;;6287221;22;20392;-68
2021/11/25 06:58:10;;;;;;;1999.90;771.60;;;5.60;99.90;;;;;;6276825;22;20728;-68
2021/11/25 07:00:38;;;;;;;1999.90;612.37;;;5.60;99.90;;;;;;6286750;22;20393;-68
2021/11/25 07:03:06;;;;;;;1999.90;901.37;;;5.50;99.90;;;;;;6286990;22;20374;-68
2021/11/25 07:05:35;;;;;;;1999.90;632.60;;;5.60;99.90;;;;;;6286886;22;20825;-68
2021/11/25 07:08:05;;;;;;;1999.90;622.63;;;5.60;99.90;;;;;;6286719;22;20400;-68
2021/11/25 07:10:33;;;;;;;1999.90;527.63;;;5.60;99.90;;;;;;6286911;22;20377;-68
2021/11/25 07:13:01;;;;;;;1999.90;604.47;;;5.60;99.90;;;;;;6287140;22;20393;-68
2021/11/25 07:15:30;;;;;;;1999.90;613.03;;;5.60;99.90;;;;;;6286836;22;20950;-68
2021/11/25 07:17:58;;;;;;;1999.90;560.83;;;5.60;99.90;;;;;;6287285;22;20809;-68
2021/11/25 07:20:26;;;;;;;1999.90;608.00;;;5.60;99.90;;;;;;6288805;22;20393;-68
2021/11/25 07:22:54;;;;;;;1963.47;478.93;;;5.60;99.90;;;;;;6288839;22;20401;-68
2021/11/25 07:25:25;;;;;;;1999.90;616.60;;;5.60;99.90;;;;;;6288797;22;20399;-68
2021/11/25 07:27:54;;;;;;;1999.90;890.23;;;5.60;99.90;;;;;;6288886;22;20413;-68
2021/11/25 07:30:23;;;;;;;1999.90;599.30;;;5.60;99.90;;;;;;6289370;22;20393;-68
2021/11/25 07:32:51;;;;;;;1999.90;618.13;;;5.60;99.90;;;;;;6289386;22;20868;-68
2021/11/25 07:35:20;;;;;;;1999.90;603.43;;;5.70;99.90;;;;;;6251658;22;20400;-68
2021/11/25 07:37:51;;;;;;;1999.90;623.17;;;5.70;99.90;;;;;;6251262;22;20528;-68
2021/11/25 07:40:20;;;;;;;1999.90;625.80;;;5.70;99.90;;;;;;6289086;22;20381;-68
2021/11/25 07:42:51;;;;;;;1999.90;599.23;;;5.70;99.90;;;;;;6278449;22;20488;-68
2021/11/25 07:45:24;;;;;;;1999.90;663.83;;;5.70;99.90;;;;;;6288864;22;20856;-68
2021/11/25 07:47:52;;;;;;;1999.90;724.87;;;5.70;99.90;;;;;;6289112;22;20403;-68
2021/11/25 07:50:25;;;;;;;1999.90;631.93;;;5.70;99.90;;;;;;6251268;22;20440;-68
2021/11/25 07:52:53;;;;;;;1999.90;601.77;;;5.70;99.90;;;;;;6289026;22;20377;-68
2021/11/25 07:55:22;;;;;;;1999.90;748.17;;;5.70;99.90;;;;;;6288565;22;20393;-68
2021/11/25 07:57:51;;;;;;;1999.90;557.63;;;5.70;99.90;;;;;;6289303;22;20425;-68
2021/11/25 08:00:22;;;;;;;1999.90;517.07;;;5.70;99.90;;;;;;6287551;22;20399;-68
2021/11/25 08:02:51;;;;;;;1999.90;604.13;;;5.80;99.90;;;;;;6288668;22;20404;-68
2021/11/25 08:05:19;;;;;;;1999.90;599.87;;;5.80;99.90;;;;;;6288844;22;20399;-68
2021/11/25 08:07:47;;;;;;;1914.83;476.00;;;5.80;99.90;;;;;;6288555;22;20730;-68
2021/11/25 08:10:16;;;;;;;1965.77;461.50;;;5.80;99.90;;;;;;6289843;22;20508;-68
2021/11/25 08:12:44;;;;;;;1999.90;575.20;;;5.80;99.90;;;;;;6288463;22;20424;-68
2021/11/25 08:15:13;;;;;;;1999.90;522.03;;;5.80;99.90;;;;;;6288415;22;20392;-68
2021/11/25 08:17:42;;;;;;;1999.90;539.00;;;5.90;99.90;;;;;;6278428;22;20431;-68
2021/11/25 08:20:12;;;;;;;1978.07;598.50;;;5.90;99.90;;;;;;6288335;22;20444;-68
2021/11/25 08:22:41;;;;;;;1999.90;557.00;;;5.80;99.90;;;;;;6288646;22;20377;-68
2021/11/25 08:25:09;;;;;;;1491.57;350.00;;;5.80;99.90;;;;;;6278330;22;20480;-68
2021/11/25 08:27:38;;;;;;;1999.90;566.83;;;5.90;99.90;;;;;;6288322;22;20730;-68
2021/11/25 08:30:11;;;;;;;1652.50;354.33;;;5.90;99.90;;;;;;6287666;22;20482;-68
2021/11/25 08:32:41;;;;;;;1999.90;524.87;;;5.90;99.90;;;;;;6250854;22;20409;-68
2021/11/25 08:35:10;;;;;;;1656.17;344.30;;;5.90;99.90;;;;;;6289192;22;20464;-68
2021/11/25 08:37:39;;;;;;;1999.90;514.93;;;5.90;99.90;;;;;;6288864;22;20871;-68
2021/11/25 08:40:09;;;;;;;1999.90;527.30;;;5.90;99.90;;;;;;6288454;22;20417;-68
2021/11/25 08:42:38;;;;;;;1999.90;575.53;;;5.90;99.90;;;;;;6287519;22;20880;-68
2021/11/25 08:45:07;;;;;;;1999.90;579.87;;;6.00;99.90;;;;;;6250903;22;20413;-68
2021/11/25 08:47:35;;;;;;;1999.90;526.50;;;5.90;99.90;;;;;;6278261;22;20404;-68
2021/11/25 08:50:06;;;;;;;1999.90;653.10;;;5.90;99.90;;;;;;6288816;22;20788;-68
2021/11/25 08:52:34;;;;;;;1999.90;549.07;;;5.90;99.90;;;;;;6289567;22;20465;-68
2021/11/25 08:55:03;;;;;;;1999.90;548.57;;;5.90;99.90;;;;;;6288734;22;20474;-68
2021/11/25 08:57:31;;;;;;;1360.70;327.80;;;6.00;99.90;;;;;;6288092;22;20397;-68
2021/11/25 08:59:59;;;;;;;1653.83;390.30;;;6.00;99.90;;;;;;6287796;22;20903;-68
2021/11/25 09:02:27;;;;;;;945.53;240.10;;;6.00;99.90;;;;;;6277645;22;20910;-68
2021/11/25 09:04:56;;;;;;;1999.90;881.33;;;6.00;99.90;;;;;;6288206;22;20708;-68
2021/11/25 09:07:26;;;;;;;1938.17;502.27;;;6.00;99.90;;;;;;6288706;22;20416;-68
2021/11/25 09:09:54;;;;;;;1429.50;343.70;;;6.10;99.90;;;;;;6277687;22;20482;-68
2021/11/25 09:12:22;;;;;;;1628.83;359.27;;;6.10;99.90;;;;;;6275415;22;20401;-67
2021/11/25 09:15:10;;;;;;;1934.27;483.73;;;6.10;99.90;;;;;;6285924;22;20389;-68
2021/11/25 09:17:38;;;;;;;1961.43;485.20;;;6.10;99.90;;;;;;6286729;22;20393;-68
2021/11/25 09:20:26;;;;;;;1999.90;555.83;;;6.20;99.90;;;;;;6287872;22;20417;-68
2021/11/25 09:22:56;;;;;;;1686.03;361.73;;;6.20;99.90;;;;;;6288216;22;20707;-68
2021/11/25 09:25:24;;;;;;;1762.40;397.10;;;6.20;99.90;;;;;;6288464;22;20400;-68
2021/11/25 09:27:52;;;;;;;1436.33;336.60;;;6.20;99.90;;;;;;6287734;22;20407;-68
2021/11/25 09:30:20;;;;;;;1006.97;255.73;;;6.30;99.90;;;;;;6287711;22;20421;-68
2021/11/25 09:32:49;;;;;;;1980.33;502.40;;;6.30;99.90;;;;;;6287915;22;20404;-68
2021/11/25 09:35:18;;;;;;;1852.77;438.67;;;6.30;99.90;;;;;;6288033;22;20480;-68
2021/11/25 09:37:49;;;;;;;371.00;76.47;;;6.40;99.90;;;;;;6292850;22;20369;-68
2021/11/25 09:40:23;;;;;;;387.63;93.03;;;6.40;99.90;;;;;;6290244;22;20486;-68
2021/11/25 09:42:53;;;;;;;1986.60;469.47;;;6.40;99.90;;;;;;6288607;22;20373;-68
2021/11/25 09:45:23;;;;;;;311.00;74.57;;;6.40;99.90;;;;;;6289169;22;20409;-68
2021/11/25 09:47:53;;;;;;;1652.63;386.43;;;6.50;99.90;;;;;;6287815;22;20390;-68
2021/11/25 09:50:23;;;;;;;398.83;71.70;;;6.50;99.90;;;;;;6287538;22;20400;-68
2021/11/25 09:52:53;;;;;;;209.50;62.47;;;6.60;99.90;;;;;;6287728;22;20400;-68
2021/11/25 09:55:23;;;;;;;178.27;62.73;;;6.60;99.90;;;;;;6287507;22;20404;-68
2021/11/25 09:57:52;;;;;;;288.37;57.77;;;6.70;99.90;;;;;;6287473;22;20468;-68
2021/11/25 10:00:22;;;;;;;144.57;57.67;;;6.70;99.90;;;;;;6287971;22;20755;-68
2021/11/25 10:02:51;;;;;;;665.20;180.67;;;6.70;99.90;;;;;;6287416;22;20405;-68
2021/11/25 10:05:19;;;;;;;450.73;112.73;;;6.70;99.90;;;;;;6288161;22;20815;-68
2021/11/25 10:07:47;;;;;;;294.80;68.60;;;6.70;99.90;;;;;;6287513;22;20759;-68
2021/11/25 10:10:24;;;;;;;305.10;71.70;;;6.70;99.90;;;;;;6287284;22;20413;-68
2021/11/25 10:13:02;;;;;;;265.77;63.63;;;6.70;99.90;;;;;;6287782;22;20376;-68
2021/11/25 10:15:35;;;;;;;614.10;153.40;;;6.70;99.90;;;;;;6288037;22;20385;-68
2021/11/25 10:18:05;;;;;;;610.77;147.70;;;6.70;99.90;;;;;;6287573;22;20689;-68
2021/11/25 10:20:37;;;;;;;237.93;63.37;;;6.70;99.90;;;;;;6249926;22;20429;-68
2021/11/25 10:23:30;;;;;;;320.40;76.53;;;6.70;99.90;;;;;;6277381;22;20432;-68
2021/11/25 10:26:02;;;;;;;1050.43;234.03;;;6.80;99.90;;;;;;6258249;22;20413;-68
2021/11/25 10:28:35;;;;;;;258.93;64.67;;;6.80;99.90;;;;;;6287776;22;20412;-68
2021/11/25 10:31:10;;;;;;;426.40;128.40;;;6.80;99.90;;;;;;6249939;22;20405;-68
2021/11/25 10:33:51;;;;;;;380.33;84.03;;;6.80;99.90;;;;;;6287889;22;20415;-68
2021/11/25 10:36:33;;;;;;;301.90;66.37;;;6.80;99.90;;;;;;6287612;22;20378;-68
2021/11/25 10:39:12;;;;;;;205.10;55.83;;;6.80;99.90;;;;;;6287189;22;20417;-68
2021/11/25 10:41:47;;;;;;;307.47;66.37;;;6.80;99.90;;;;;;6287539;22;20384;-68
2021/11/25 10:44:23;;;;;;;451.80;114.90;;;6.80;99.90;;;;;;6287793;22;20459;-68
2021/11/25 10:46:56;;;;;;;291.53;66.37;;;6.90;99.90;;;;;;6287114;22;20380;-68
2021/11/25 10:49:41;;;;;;;322.30;72.33;;;6.90;99.90;;;;;;6287185;22;20448;-68
2021/11/25 10:52:16;;;;;;;312.17;66.33;;;6.90;99.90;;;;;;6250455;22;20451;-68
2021/11/25 10:54:47;;;;;;;402.17;75.83;;;6.90;99.90;;;;;;6288662;22;20777;-68
2021/11/25 10:57:17;;;;;;;211.70;62.13;;;6.90;99.90;;;;;;6293026;22;20899;-68
2021/11/25 10:59:48;;;;;;;251.73;68.53;;;6.90;99.90;;;;;;6296093;22;20429;-68
2021/11/25 11:02:28;;;;;;;216.50;62.63;;;6.90;99.90;;;;;;6278818;22;20436;-68
2021/11/25 11:04:59;;;;;;;249.03;75.53;;;6.80;99.90;;;;;;6288325;22;20431;-68
2021/11/25 11:07:30;;;;;;;272.03;79.70;;;6.80;99.90;;;;;;6287256;22;20476;-68
2021/11/25 11:09:59;;;;;;;221.07;65.90;;;6.80;99.90;;;;;;6287272;22;20499;-68
2021/11/25 11:12:33;;;;;;;162.60;61.63;;;6.80;99.90;;;;;;6287686;22;20389;-68
2021/11/25 11:15:25;;;;;;;214.47;64.70;;;6.70;99.90;;;;;;6287993;22;20535;-68
2021/11/25 11:18:02;;;;;;;302.20;76.50;;;6.70;99.90;;;;;;6298521;22;20389;-68
2021/11/25 11:20:32;;;;;;;191.90;75.10;;;6.70;99.90;;;;;;6291711;22;20775;-68
2021/11/25 11:23:02;;;;;;;239.00;72.63;;;6.70;99.90;;;;;;6288362;22;20397;-67
2021/11/25 11:25:33;;;;;;;228.40;66.63;;;6.70;99.90;;;;;;6249237;22;20563;-68
2021/11/25 11:28:06;;;;;;;207.03;67.73;;;6.70;99.90;;;;;;6287320;22;20775;-68
2021/11/25 11:30:35;;;;;;;305.83;70.27;;;6.70;99.90;;;;;;6287354;22;20377;-68
2021/11/25 11:33:06;;;;;;;251.33;67.20;;;6.70;99.90;;;;;;6249368;22;20504;-68
2021/11/25 11:35:35;;;;;;;137.20;61.87;;;6.70;99.90;;;;;;6287606;22;20382;-68
2021/11/25 11:38:03;;;;;;;272.07;72.10;;;6.70;99.90;;;;;;6249315;22;20430;-68
2021/11/25 11:40:35;;;;;;;193.77;68.43;;;6.70;99.90;;;;;;6277009;22;20492;-68
2021/11/25 11:43:05;;;;;;;194.33;65.83;;;6.70;99.90;;;;;;6287104;22;20384;-68
2021/11/25 11:45:38;;;;;;;191.37;66.93;;;6.70;99.90;;;;;;6286697;22;20481;-67
2021/11/25 11:48:08;;;;;;;211.53;62.43;;;6.70;99.90;;;;;;6249283;22;20408;-68
2021/11/25 11:50:38;;;;;;;235.90;67.50;;;6.80;99.90;;;;;;6286817;22;20862;-68
2021/11/25 11:53:09;;;;;;;147.57;61.60;;;6.70;99.90;;;;;;6286788;22;20384;-68
2021/11/25 11:55:39;;;;;;;86.43;57.00;;;6.70;99.90;;;;;;6287037;22;20817;-68
2021/11/25 11:58:31;;;;;;;274.57;80.10;;;6.70;99.90;;;;;;6286950;22;20397;-68
2021/11/25 12:01:04;;;;;;;280.83;74.20;;;6.80;99.90;;;;;;6276275;22;20931;-68
2021/11/25 12:03:46;;;;;;;209.30;64.03;;;6.80;99.90;;;;;;6287152;22;20377;-68
2021/11/25 12:06:31;;;;;;;135.50;60.53;;;6.80;99.90;;;;;;6288817;22;20385;-68
2021/11/25 12:09:00;;;;;;;226.60;72.63;;;6.80;99.90;;;;;;6288579;22;20404;-68
2021/11/25 12:11:39;;;;;;;213.40;58.80;;;6.80;99.90;;;;;;6251095;22;20463;-68
2021/11/25 12:14:18;;;;;;;154.40;57.90;;;6.80;99.90;;;;;;6278213;22;20443;-68
2021/11/25 12:16:52;;;;;;;207.90;71.83;;;6.80;99.90;;;;;;6289201;22;20428;-68
2021/11/25 12:19:26;;;;;;;203.00;62.00;;;6.80;99.90;;;;;;6251056;22;20748;-68
2021/11/25 12:21:56;;;;;;;182.40;65.70;;;6.80;99.90;;;;;;6288334;22;20790;-68
2021/11/25 12:24:27;;;;;;;237.97;69.83;;;6.80;99.90;;;;;;6288493;22;20401;-68
2021/11/25 12:27:12;;;;;;;266.23;72.40;;;6.90;99.90;;;;;;6250862;22;20537;-68
2021/11/25 12:29:50;;;;;;;236.23;62.77;;;6.90;99.90;;;;;;6288603;22;20497;-68
2021/11/25 12:32:37;;;;;;;140.67;58.00;;;6.90;99.90;;;;;;6289010;22;20471;-68